createdAt,value
2019-04-14T00:02:05.373Z,27.17
2019-04-14T00:04:38.461Z,27.22
2019-04-14T00:07:10.224Z,28.83
2019-04-14T00:09:43.054Z,28.02
2019-04-14T00:12:14.813Z,28.35
2019-04-14T00:14:46.896Z,27.32
2019-04-14T00:17:19.415Z,28.75
2019-04-14T00:19:52.379Z,28.42
2019-04-14T00:22:27.484Z,28.25
2019-04-14T00:24:57.515Z,28.65
2019-04-14T00:27:30.272Z,27.73
2019-04-14T00:30:03.259Z,29.15
2019-04-14T00:32:37.844Z,26.85
2019-04-14T00:35:14.659Z,27.37
2019-04-14T00:38:04.287Z,30.08
2019-04-14T00:40:37.506Z,30.45
2019-04-14T00:43:20.016Z,32.13
2019-04-14T00:46:00.976Z,31.85
2019-04-14T00:48:34.100Z,29.92
2019-04-14T00:51:06.951Z,28.25
2019-04-14T00:53:38.522Z,32.30
2019-04-14T00:56:12.860Z,30.75
2019-04-14T00:58:45.353Z,29.07
2019-04-14T01:01:17.577Z,28.73
2019-04-14T01:03:50.217Z,29.95
2019-04-14T01:06:22.945Z,30.45
2019-04-14T01:08:55.391Z,29.07
2019-04-14T01:11:27.195Z,29.07
2019-04-14T01:13:59.443Z,28.25
2019-04-14T01:16:31.930Z,28.87
2019-04-14T01:19:04.789Z,27.93
2019-04-14T01:21:37.086Z,34.78
2019-04-14T01:24:09.625Z,30.45
2019-04-14T01:26:42.089Z,33.10
2019-04-14T01:29:14.413Z,31.95
2019-04-14T01:31:47.126Z,31.33
2019-04-14T01:34:19.505Z,30.40
2019-04-14T01:36:51.830Z,29.98
2019-04-14T01:39:24.300Z,29.80
2019-04-14T01:41:56.457Z,27.90
2019-04-14T01:44:29.162Z,27.07
2019-04-14T01:47:00.967Z,26.85
2019-04-14T01:49:33.269Z,27.05
2019-04-14T01:52:23.189Z,26.55
2019-04-14T01:55:09.113Z,25.72
2019-04-14T01:57:48.418Z,26.23
2019-04-14T02:00:40.248Z,26.40
2019-04-14T02:03:12.917Z,26.93
2019-04-14T02:05:45.310Z,26.10
2019-04-14T02:08:17.742Z,25.72
2019-04-14T02:10:49.964Z,26.85
2019-04-14T02:13:22.523Z,26.68
2019-04-14T02:15:55.007Z,29.32
2019-04-14T02:18:27.577Z,27.62
2019-04-14T02:20:59.972Z,27.70
2019-04-14T02:23:32.373Z,27.40
2019-04-14T02:26:04.684Z,27.58
2019-04-14T02:28:37.567Z,28.87
2019-04-14T02:31:24.807Z,30.70
2019-04-14T02:34:07.496Z,30.72
2019-04-14T02:42:02.581Z,30.55
2019-04-14T02:46:59.934Z,29.55
2019-04-14T02:52:04.764Z,29.52
2019-04-14T02:54:45.909Z,29.85
2019-04-14T02:57:37.896Z,29.15
2019-04-14T03:00:07.725Z,31.65
2019-04-14T03:07:46.795Z,32.35
2019-04-14T03:10:22.303Z,33.70
2019-04-14T03:12:54.627Z,34.20
2019-04-14T03:15:27.968Z,31.07
2019-04-14T03:18:18.976Z,31.23
2019-04-14T03:20:32.443Z,33.45
2019-04-14T03:23:19.087Z,32.33
2019-04-14T03:25:43.300Z,32.58
2019-04-14T03:28:26.287Z,33.58
2019-04-14T03:34:08.236Z,33.40
2019-04-14T03:38:46.514Z,32.65
2019-04-14T03:43:41.548Z,31.87
2019-04-14T03:49:31.720Z,33.28
2019-04-14T03:52:02.482Z,32.90
2019-04-14T03:54:03.132Z,35.03
2019-04-14T03:56:49.215Z,34.05
2019-04-14T03:59:21.832Z,34.43
2019-04-14T04:01:54.436Z,33.35
2019-04-14T04:04:27.843Z,33.75
2019-04-14T04:06:59.667Z,33.73
2019-04-14T04:09:34.361Z,33.95
2019-04-14T04:12:07.386Z,32.20
2019-04-14T04:14:40.148Z,34.75
2019-04-14T04:17:16.819Z,33.25
2019-04-14T04:19:51.318Z,34.58
2019-04-14T04:22:41.239Z,36.08
2019-04-14T04:25:14.568Z,38.70
2019-04-14T04:27:52.635Z,41.35
2019-04-14T04:30:29.733Z,43.35
2019-04-14T04:33:17.767Z,42.65
2019-04-14T04:35:54.960Z,37.35
2019-04-14T04:38:34.220Z,35.35
2019-04-14T04:41:05.935Z,37.17
2019-04-14T04:43:38.729Z,35.25
2019-04-14T04:46:11.325Z,35.65
2019-04-14T04:48:43.722Z,35.52
2019-04-14T04:51:16.651Z,36.77
2019-04-14T04:53:48.371Z,35.78
2019-04-14T04:56:20.916Z,38.30
2019-04-14T04:58:52.380Z,36.40
2019-04-14T05:01:23.905Z,35.50
2019-04-14T05:03:55.742Z,35.75
2019-04-14T05:06:54.719Z,35.90
2019-04-14T05:09:38.840Z,34.55
2019-04-14T05:12:13.251Z,35.92
2019-04-14T05:15:03.587Z,35.92
2019-04-14T05:17:40.857Z,33.83
2019-04-14T05:20:14.022Z,34.65
2019-04-14T05:22:46.196Z,33.80
2019-04-14T05:25:18.890Z,32.75
2019-04-14T05:27:51.612Z,34.10
2019-04-14T05:30:24.306Z,33.08
2019-04-14T05:32:56.545Z,36.38
2019-04-14T05:35:29.111Z,35.95
2019-04-14T05:38:01.839Z,36.00
2019-04-14T05:40:34.639Z,36.63
2019-04-14T05:43:08.866Z,35.63
2019-04-14T05:45:41.633Z,36.80
2019-04-14T05:48:13.952Z,34.90
2019-04-14T05:50:46.909Z,32.70
2019-04-14T05:53:19.609Z,33.67
2019-04-14T05:55:52.574Z,38.23
2019-04-14T05:58:25.265Z,33.48
2019-04-14T06:00:58.005Z,33.88
2019-04-14T06:03:30.658Z,34.75
2019-04-14T06:06:02.174Z,34.10
2019-04-14T06:08:36.275Z,35.55
2019-04-14T06:11:07.817Z,37.45
2019-04-14T06:13:39.361Z,34.63
2019-04-14T06:16:11.843Z,35.60
2019-04-14T06:18:43.542Z,33.92
2019-04-14T06:21:15.137Z,33.25
2019-04-14T06:23:46.722Z,33.78
2019-04-14T06:26:18.321Z,35.48
2019-04-14T06:28:49.851Z,34.67
2019-04-14T06:31:29.012Z,35.30
2019-04-14T06:34:02.174Z,33.45
2019-04-14T06:36:53.599Z,35.78
2019-04-14T06:39:30.498Z,35.52
2019-04-14T06:42:02.417Z,35.40
2019-04-14T06:44:34.490Z,34.85
2019-04-14T06:47:06.570Z,36.05
2019-04-14T06:49:48.478Z,34.20
2019-04-14T06:52:11.639Z,34.58
2019-04-14T06:54:43.335Z,33.67
2019-04-14T06:57:17.087Z,32.80
2019-04-14T06:59:50.240Z,32.65
2019-04-14T07:02:21.783Z,31.57
2019-04-14T07:04:53.431Z,34.73
2019-04-14T07:07:24.982Z,34.18
2019-04-14T07:09:57.028Z,35.78
2019-04-14T07:12:28.628Z,35.52
2019-04-14T07:15:00.382Z,34.58
2019-04-14T07:17:32.459Z,35.35
2019-04-14T07:20:05.498Z,33.23
2019-04-14T07:22:38.013Z,34.53
2019-04-14T07:25:09.538Z,33.13
2019-04-14T07:27:41.081Z,33.42
2019-04-14T07:30:17.989Z,33.58
2019-04-14T07:32:54.548Z,35.33
2019-04-14T07:35:43.961Z,36.85
2019-04-14T07:38:17.132Z,35.65
2019-04-14T07:41:06.445Z,34.90
2019-04-14T07:43:45.378Z,37.60
2019-04-14T07:46:18.654Z,36.73
2019-04-14T07:48:57.646Z,35.95
2019-04-14T07:51:43.211Z,36.30
2019-04-14T07:56:49.136Z,37.38
2019-04-14T07:59:23.317Z,37.53
2019-04-14T08:01:56.614Z,35.73
2019-04-14T08:04:29.780Z,37.85
2019-04-14T08:07:01.464Z,36.93
2019-04-14T08:09:33.166Z,35.13
2019-04-14T08:12:05.140Z,37.85
2019-04-14T08:14:36.746Z,40.08
2019-04-14T08:17:08.405Z,39.95
2019-04-14T08:19:40.083Z,39.65
2019-04-14T08:22:11.610Z,39.60
2019-04-14T08:24:43.203Z,40.83
2019-04-14T08:27:14.774Z,40.35
2019-04-14T08:29:46.491Z,40.03
2019-04-14T08:32:18.039Z,42.93
2019-04-14T08:34:53.854Z,43.25
2019-04-14T08:37:25.359Z,42.30
2019-04-14T08:39:56.918Z,39.92
2019-04-14T08:42:46.480Z,36.15
2019-04-14T08:45:25.911Z,36.38
2019-04-14T08:47:59.015Z,39.83
2019-04-14T08:50:44.430Z,37.30
2019-04-14T08:53:26.770Z,32.58
2019-04-14T08:56:03.122Z,32.80
2019-04-14T08:58:51.445Z,33.55
2019-04-14T09:01:24.577Z,34.75
2019-04-14T09:03:58.507Z,31.82
2019-04-14T09:06:48.299Z,28.60
2019-04-14T09:09:25.887Z,29.80
2019-04-14T09:12:14.564Z,29.63
2019-04-14T09:14:37.160Z,29.95
2019-04-14T09:17:09.036Z,29.87
2019-04-14T09:19:41.196Z,32.67
2019-04-14T09:22:15.127Z,33.10
2019-04-14T09:24:46.829Z,31.27
2019-04-14T09:27:19.394Z,33.13
2019-04-14T09:29:54.310Z,33.05
2019-04-14T09:32:28.028Z,33.23
2019-04-14T09:34:59.830Z,33.95
2019-04-14T09:37:32.684Z,33.70
2019-04-14T09:40:04.845Z,33.20
2019-04-14T09:42:37.840Z,34.58
2019-04-14T09:45:09.365Z,34.43
2019-04-14T09:47:41.050Z,34.73
2019-04-14T09:50:13.547Z,34.48
2019-04-14T09:52:45.875Z,36.35
2019-04-14T09:55:17.584Z,38.38
2019-04-14T09:57:50.641Z,40.50
2019-04-14T10:00:22.593Z,35.33
2019-04-14T10:02:54.621Z,35.73
2019-04-14T10:05:26.265Z,35.63
2019-04-14T10:07:59.948Z,34.60
2019-04-14T10:13:04.457Z,35.65
2019-04-14T10:15:37.134Z,36.42
2019-04-14T10:18:08.753Z,53.80
2019-04-14T10:20:40.319Z,38.28
2019-04-14T10:23:12.486Z,38.55
2019-04-14T10:25:44.637Z,43.80
2019-04-14T10:28:16.353Z,41.92
2019-04-14T10:30:49.861Z,41.60
2019-04-14T10:33:21.437Z,37.73
2019-04-14T10:35:55.707Z,41.50
2019-04-14T10:38:27.287Z,41.13
2019-04-14T10:40:59.114Z,39.27
2019-04-14T10:43:30.865Z,37.90
2019-04-14T10:46:03.022Z,40.65
2019-04-14T10:48:34.709Z,37.38
2019-04-14T10:51:10.134Z,35.33
2019-04-14T10:53:44.313Z,35.50
2019-04-14T10:56:15.960Z,36.98
2019-04-14T10:58:47.823Z,36.58
2019-04-14T11:01:19.633Z,37.23
2019-04-14T11:03:51.164Z,35.43
2019-04-14T11:06:27.528Z,33.70
2019-04-14T11:09:00.886Z,34.85
2019-04-14T11:11:34.843Z,35.03
2019-04-14T11:14:06.450Z,34.05
2019-04-14T11:16:38.141Z,33.38
2019-04-14T11:19:09.786Z,31.87
2019-04-14T11:21:42.782Z,32.30
2019-04-14T11:24:14.977Z,32.33
2019-04-14T11:26:46.762Z,32.40
2019-04-14T11:29:18.390Z,31.30
2019-04-14T11:31:55.531Z,31.27
2019-04-14T11:34:31.594Z,29.23
2019-04-14T11:37:08.101Z,28.75
2019-04-14T11:39:41.455Z,28.52
2019-04-14T11:42:15.297Z,28.52
2019-04-14T11:44:48.345Z,29.80
2019-04-14T11:47:20.743Z,28.52
2019-04-14T11:50:03.218Z,29.15
2019-04-14T11:52:49.052Z,30.70
2019-04-14T11:55:23.113Z,29.50
2019-04-14T11:57:54.831Z,29.65
2019-04-14T12:00:44.147Z,28.67
2019-04-14T12:03:26.742Z,28.00
2019-04-14T12:06:00.161Z,28.65
2019-04-14T12:08:46.353Z,27.35
2019-04-14T12:11:18.089Z,27.42
2019-04-14T12:13:50.810Z,28.50
2019-04-14T12:16:23.578Z,26.65
2019-04-14T12:18:55.231Z,26.60
2019-04-14T12:21:26.882Z,25.92
2019-04-14T12:23:58.553Z,26.42
2019-04-14T12:26:30.231Z,25.62
2019-04-14T12:29:03.560Z,26.52
2019-04-14T12:31:35.339Z,26.40
2019-04-14T12:34:09.739Z,28.70
2019-04-14T12:36:41.416Z,26.80
2019-04-14T12:39:22.042Z,25.32
2019-04-14T12:41:55.170Z,25.70
2019-04-14T12:44:44.018Z,26.07
2019-04-14T12:47:23.232Z,27.42
2019-04-14T12:50:05.680Z,26.97
2019-04-14T12:52:38.429Z,25.15
2019-04-14T12:55:11.584Z,26.48
2019-04-14T12:57:51.168Z,26.15
2019-04-14T13:00:34.628Z,25.77
2019-04-14T13:03:07.323Z,25.35
2019-04-14T13:05:39.249Z,26.45
2019-04-14T13:08:11.239Z,26.10
2019-04-14T13:10:42.963Z,26.33
2019-04-14T13:13:16.703Z,27.67
2019-04-14T13:15:48.357Z,25.77
2019-04-14T13:18:23.220Z,26.52
2019-04-14T13:20:54.801Z,26.02
2019-04-14T13:23:26.340Z,24.57
2019-04-14T13:25:58.300Z,25.08
2019-04-14T13:28:30.423Z,25.10
2019-04-14T13:31:02.061Z,24.98
2019-04-14T13:33:33.633Z,25.48
2019-04-14T13:36:05.567Z,25.37
2019-04-14T13:38:37.071Z,25.12
2019-04-14T13:41:08.618Z,26.35
2019-04-14T13:43:40.241Z,25.97
2019-04-14T13:46:12.034Z,25.68
2019-04-14T13:48:43.591Z,25.15
2019-04-14T13:51:15.157Z,25.40
2019-04-14T13:53:48.352Z,26.90
2019-04-14T13:56:20.125Z,25.62
2019-04-14T13:58:51.657Z,26.00
2019-04-14T14:01:23.236Z,24.37
2019-04-14T14:03:55.150Z,25.02
2019-04-14T14:06:27.770Z,26.82
2019-04-14T14:08:59.378Z,27.55
2019-04-14T14:11:32.590Z,26.85
2019-04-14T14:17:01.038Z,26.27
2019-04-14T14:19:40.502Z,26.27
2019-04-14T14:22:13.678Z,27.65
2019-04-14T14:24:52.976Z,26.68
2019-04-14T14:27:24.505Z,30.62
2019-04-14T14:29:56.168Z,28.87
2019-04-14T14:32:29.261Z,26.10
2019-04-14T14:35:00.847Z,27.65
2019-04-14T14:37:32.444Z,29.75
2019-04-14T14:40:06.448Z,28.83
2019-04-14T14:42:38.239Z,28.10
2019-04-14T14:45:12.455Z,29.90
2019-04-14T14:47:47.766Z,29.15
2019-04-14T14:50:21.160Z,28.02
2019-04-14T14:52:52.731Z,29.05
2019-04-14T14:55:24.302Z,30.08
2019-04-14T14:57:55.998Z,29.10
2019-04-14T15:00:30.184Z,27.77
2019-04-14T15:03:01.755Z,30.85
2019-04-14T15:05:33.268Z,29.37
2019-04-14T15:08:04.874Z,29.85
2019-04-14T15:10:37.405Z,29.57
2019-04-14T15:13:08.963Z,29.52
2019-04-14T15:15:40.593Z,30.70
2019-04-14T15:18:12.182Z,32.85
2019-04-14T15:20:44.795Z,30.25
2019-04-14T15:23:24.670Z,31.57
2019-04-14T15:25:50.717Z,31.55
2019-04-14T15:28:22.374Z,32.38
2019-04-14T15:30:53.994Z,31.68
2019-04-14T15:33:25.666Z,31.93
2019-04-14T15:35:58.303Z,30.17
2019-04-14T15:38:30.198Z,32.13
2019-04-14T15:41:01.835Z,30.10
2019-04-14T15:43:34.517Z,31.27
2019-04-14T15:46:06.064Z,31.35
2019-04-14T15:48:37.680Z,30.02
2019-04-14T15:51:10.198Z,30.30
2019-04-14T15:53:41.733Z,31.55
2019-04-14T15:56:15.021Z,30.20
2019-04-14T15:58:51.335Z,30.80
2019-04-14T16:01:34.605Z,28.92
2019-04-14T16:04:10.838Z,29.32
2019-04-14T16:06:44.095Z,31.68
2019-04-14T16:09:24.197Z,30.57
2019-04-14T16:12:15.396Z,29.35
2019-04-14T16:15:03.946Z,30.48
2019-04-14T16:17:47.966Z,31.60
2019-04-14T16:20:21.216Z,31.52
2019-04-14T16:22:55.231Z,32.17
2019-04-14T16:25:36.746Z,30.48
2019-04-14T16:28:09.863Z,32.63
2019-04-14T16:31:01.569Z,30.35
2019-04-14T16:33:40.527Z,31.30
2019-04-14T16:36:12.087Z,32.30
2019-04-14T16:38:43.927Z,31.30
2019-04-14T16:41:16.641Z,32.05
2019-04-14T16:43:48.228Z,33.65
2019-04-14T16:46:19.798Z,31.93
2019-04-14T16:48:51.378Z,31.17
2019-04-14T16:51:42.895Z,29.90
2019-04-14T16:54:19.213Z,30.02
2019-04-14T16:57:09.164Z,31.00
2019-04-14T16:59:44.274Z,28.45
2019-04-14T17:02:15.882Z,27.55
2019-04-14T17:04:47.534Z,28.12
2019-04-14T17:07:20.428Z,28.98
2019-04-14T17:09:51.983Z,27.87
2019-04-14T17:12:23.680Z,28.17
2019-04-14T17:14:59.899Z,28.87
2019-04-14T17:17:42.083Z,26.82
2019-04-14T17:20:21.306Z,26.45
2019-04-14T17:23:00.734Z,27.73
2019-04-14T17:25:33.843Z,25.27
2019-04-14T17:28:09.986Z,25.68
2019-04-14T17:30:43.082Z,23.85
2019-04-14T17:33:20.270Z,24.02
2019-04-14T17:35:54.467Z,22.90
2019-04-14T17:38:27.555Z,23.55
2019-04-14T17:41:18.814Z,23.32
2019-04-14T17:44:08.304Z,24.05
2019-04-14T17:46:47.137Z,23.67
2019-04-14T17:49:23.265Z,22.75
2019-04-14T17:52:13.523Z,25.37
2019-04-14T17:54:49.381Z,22.45
2019-04-14T17:57:34.707Z,24.30
2019-04-14T18:03:05.023Z,24.27
2019-04-14T18:05:38.167Z,24.47
2019-04-14T18:08:20.269Z,23.38
2019-04-14T18:11:03.011Z,24.37
2019-04-14T18:13:36.114Z,23.07
2019-04-14T18:16:15.216Z,23.92
2019-04-14T18:18:54.423Z,22.77
2019-04-14T18:21:26.003Z,22.07
2019-04-14T18:23:57.551Z,22.62
2019-04-14T18:26:30.155Z,22.93
2019-04-14T18:29:19.604Z,22.87
2019-04-14T18:31:55.617Z,23.07
2019-04-14T18:34:31.814Z,22.32
2019-04-14T18:37:07.961Z,22.20
2019-04-14T18:39:57.441Z,21.82
2019-04-14T18:42:36.394Z,20.35
2019-04-14T18:45:17.555Z,21.02
2019-04-14T18:47:50.694Z,19.95
2019-04-14T18:50:38.904Z,21.55
2019-04-14T18:53:18.353Z,19.73
2019-04-14T18:55:51.424Z,21.42
2019-04-14T18:58:36.720Z,21.73
2019-04-14T19:01:12.625Z,20.32
2019-04-14T19:03:45.385Z,22.60
2019-04-14T19:06:16.952Z,21.70
2019-04-14T19:08:52.536Z,23.05
2019-04-14T19:11:42.065Z,23.18
2019-04-14T19:14:16.177Z,23.70
2019-04-14T19:16:55.316Z,23.65
2019-04-14T19:19:26.935Z,25.02
2019-04-14T19:22:00.389Z,26.00
2019-04-14T19:24:31.923Z,26.25
2019-04-14T19:27:03.534Z,26.15
2019-04-14T19:29:35.053Z,25.60
2019-04-14T19:32:06.589Z,24.80
2019-04-14T19:34:38.135Z,23.73
2019-04-14T19:37:13.216Z,26.55
2019-04-14T19:42:18.640Z,23.42
2019-04-14T19:44:50.182Z,24.60
2019-04-14T19:47:21.747Z,24.15
2019-04-14T19:49:54.434Z,23.73
2019-04-14T19:52:25.902Z,23.12
2019-04-14T19:54:57.386Z,23.18
2019-04-14T19:57:29.055Z,22.60
2019-04-14T20:00:00.505Z,22.73
2019-04-14T20:02:32.125Z,23.60
2019-04-14T20:05:07.190Z,22.32
2019-04-14T20:07:39.157Z,22.52
2019-04-14T20:10:12.632Z,23.83
2019-04-14T20:12:44.357Z,24.18
2019-04-14T20:15:17.490Z,23.77
2019-04-14T20:17:50.719Z,24.67
2019-04-14T20:20:36.894Z,23.75
2019-04-14T20:23:19.000Z,25.52
2019-04-14T20:26:01.534Z,24.72
2019-04-14T20:28:34.730Z,24.72
2019-04-14T20:31:11.862Z,23.80
2019-04-14T20:33:43.518Z,23.60
2019-04-14T20:36:15.072Z,25.23
2019-04-14T20:38:46.679Z,26.27
2019-04-14T20:41:18.212Z,22.60
2019-04-14T20:43:49.760Z,24.75
2019-04-14T20:46:21.408Z,25.50
2019-04-14T20:48:52.963Z,23.32
2019-04-14T20:51:24.503Z,23.38
2019-04-14T20:53:57.375Z,23.00
2019-04-14T20:56:28.964Z,22.98
2019-04-14T20:59:00.610Z,21.87
2019-04-14T21:01:34.627Z,22.73
2019-04-14T21:04:10.607Z,24.77
2019-04-14T21:06:43.815Z,22.70
2019-04-14T21:09:19.903Z,23.10
2019-04-14T21:11:53.027Z,21.80
2019-04-14T21:14:32.113Z,22.98
2019-04-14T21:17:09.159Z,24.43
2019-04-14T21:19:45.334Z,23.95
2019-04-14T21:22:23.126Z,23.98
2019-04-14T21:25:00.173Z,24.02
2019-04-14T21:27:39.026Z,24.07
2019-04-14T21:30:27.299Z,22.50
2019-04-14T21:33:12.694Z,23.52
2019-04-14T21:38:26.890Z,24.45
2019-04-14T21:41:02.812Z,23.12
2019-04-14T21:43:34.541Z,24.00
2019-04-14T21:46:06.146Z,23.55
2019-04-14T21:48:37.670Z,23.87
2019-04-14T21:51:10.230Z,23.50
2019-04-14T21:53:41.901Z,22.00
2019-04-14T21:56:14.009Z,24.60
2019-04-14T21:58:50.033Z,22.02
2019-04-14T22:01:42.184Z,20.97
2019-04-14T22:04:31.701Z,21.07
2019-04-14T22:07:14.255Z,21.35
2019-04-14T22:09:45.896Z,21.12
2019-04-14T22:12:19.742Z,21.33
2019-04-14T22:14:51.312Z,21.10
2019-04-14T22:17:22.811Z,20.23
2019-04-14T22:19:54.481Z,19.55
2019-04-14T22:22:26.056Z,18.62
2019-04-14T22:24:57.622Z,17.82
2019-04-14T22:27:29.186Z,17.25
2019-04-14T22:30:00.761Z,18.60
2019-04-14T22:32:32.310Z,20.60
2019-04-14T22:35:04.548Z,21.97
2019-04-14T22:37:36.542Z,18.80
2019-04-14T22:40:08.407Z,18.07
2019-04-14T22:42:39.985Z,18.48
2019-04-14T22:45:13.194Z,18.27
2019-04-14T22:47:44.720Z,18.65
2019-04-14T22:50:16.264Z,16.75
2019-04-14T22:52:47.800Z,19.00
2019-04-14T22:55:19.522Z,18.57
2019-04-14T22:57:51.102Z,17.57
2019-04-14T23:00:32.562Z,18.52
2019-04-14T23:03:21.890Z,16.82
2019-04-14T23:06:11.646Z,16.77
2019-04-14T23:08:57.062Z,16.75
2019-04-14T23:14:39.164Z,15.68
2019-04-14T23:17:18.924Z,14.98
2019-04-14T23:19:52.037Z,16.02
2019-04-14T23:22:27.940Z,14.55
2019-04-14T23:24:59.386Z,16.25
2019-04-14T23:27:30.817Z,15.03
2019-04-14T23:30:03.350Z,16.25
2019-04-14T23:32:34.971Z,16.62
2019-04-14T23:35:08.436Z,15.50
2019-04-14T23:37:40.065Z,15.85
2019-04-14T23:40:12.278Z,15.75
2019-04-14T23:42:43.837Z,14.65
2019-04-14T23:45:15.349Z,15.08
2019-04-14T23:47:48.137Z,14.13
2019-04-14T23:50:19.823Z,16.52
2019-04-14T23:52:52.428Z,15.38
2019-04-14T23:55:24.366Z,16.55
2019-04-14T23:57:57.192Z,16.52
